Time;durP1;ratioP1;P1;durP2;ratioP2;P2;SDS_P1;SDS_P2;PMS_P1;PMS_P2;Temp;Humidity;BMP_temperature;BMP_pressure;BME280_temperature;BME280_humidity;BME280_pressure;Samples;Min_cycle;Max_cycle;Signal;HPM_P1;HPM_P2
2022/04/29 00:00:10;;;;;;;7.25;6.55;;;13.90;70.80;;;;;;5094224;28;20569;-68
2022/04/29 00:02:39;;;;;;;9.80;8.73;;;13.80;70.70;;;;;;5094564;28;20235;-68
2022/04/29 00:05:09;;;;;;;9.48;7.60;;;13.80;70.70;;;;;;5086687;28;20224;-68
2022/04/29 00:07:36;;;;;;;9.50;8.05;;;13.80;70.80;;;;;;5094790;28;20227;-69
2022/04/29 00:10:04;;;;;;;10.02;7.90;;;13.70;71.00;;;;;;5094486;28;20280;-68
2022/04/29 00:12:30;;;;;;;9.27;8.32;;;13.70;71.00;;;;;;5094162;28;20993;-68
2022/04/29 00:14:57;;;;;;;8.68;7.80;;;13.70;71.30;;;;;;5094117;28;20685;-68
2022/04/29 00:17:24;;;;;;;9.23;8.20;;;13.60;71.40;;;;;;5093929;28;20242;-68
2022/04/29 00:19:51;;;;;;;9.68;8.77;;;13.60;71.50;;;;;;5094028;28;20315;-68
2022/04/29 00:22:21;;;;;;;9.43;8.10;;;13.60;71.70;;;;;;5093816;28;20227;-68
2022/04/29 00:24:48;;;;;;;8.48;7.72;;;13.50;71.90;;;;;;5094005;28;20219;-68
2022/04/29 00:27:14;;;;;;;9.05;8.07;;;13.50;71.80;;;;;;5093819;28;20227;-68
2022/04/29 00:29:41;;;;;;;8.80;8.00;;;13.50;72.30;;;;;;5094264;28;20219;-68
2022/04/29 00:32:08;;;;;;;9.27;8.32;;;13.50;72.40;;;;;;5090728;28;20314;-68
2022/04/29 00:34:35;;;;;;;9.23;8.30;;;13.50;72.50;;;;;;5094139;28;20234;-68
2022/04/29 00:37:02;;;;;;;8.32;7.20;;;13.40;72.80;;;;;;5093991;28;20219;-68
2022/04/29 00:39:30;;;;;;;9.02;7.53;;;13.40;73.00;;;;;;5093637;28;20656;-68
2022/04/29 00:41:57;;;;;;;8.13;7.43;;;13.40;73.10;;;;;;5093738;28;20223;-68
2022/04/29 00:44:24;;;;;;;8.52;7.53;;;13.40;73.50;;;;;;5093124;28;20223;-68
2022/04/29 00:46:51;;;;;;;9.63;8.57;;;13.30;73.30;;;;;;5093749;28;20224;-68
2022/04/29 00:49:19;;;;;;;9.38;7.13;;;13.30;73.20;;;;;;5093132;28;20220;-68
2022/04/29 00:51:51;;;;;;;8.98;8.18;;;13.20;73.20;;;;;;5093711;28;20231;-68
2022/04/29 00:54:24;;;;;;;8.95;7.78;;;13.20;73.20;;;;;;5093295;28;20237;-68
2022/04/29 00:56:54;;;;;;;8.27;7.50;;;13.20;73.20;;;;;;5093704;28;20223;-68
2022/04/29 00:59:28;;;;;;;7.80;7.05;;;13.20;73.20;;;;;;5093158;28;20227;-68
2022/04/29 01:01:57;;;;;;;8.10;7.40;;;13.20;73.40;;;;;;5093345;28;20223;-67
2022/04/29 01:04:29;;;;;;;7.70;6.95;;;13.10;73.40;;;;;;5093036;28;20228;-68
2022/04/29 01:06:57;;;;;;;10.32;7.75;;;13.10;73.40;;;;;;5093406;28;20224;-68
2022/04/29 01:09:23;;;;;;;8.10;7.35;;;13.10;73.60;;;;;;5092844;28;20238;-68
2022/04/29 01:11:52;;;;;;;7.18;6.55;;;13.10;73.60;;;;;;5093115;28;20219;-68
2022/04/29 01:14:19;;;;;;;8.63;7.35;;;13.10;73.80;;;;;;5092649;28;20223;-68
2022/04/29 01:16:46;;;;;;;9.38;8.05;;;13.10;74.10;;;;;;5092671;28;20230;-69
2022/04/29 01:19:13;;;;;;;10.27;8.10;;;13.10;74.50;;;;;;5092383;28;20231;-67
2022/04/29 01:21:39;;;;;;;8.60;7.80;;;13.00;74.70;;;;;;5092750;28;20857;-67
2022/04/29 01:24:08;;;;;;;8.75;7.82;;;13.10;74.70;;;;;;5089764;28;20227;-67
2022/04/29 01:26:36;;;;;;;11.27;7.25;;;13.00;74.90;;;;;;5092710;28;20233;-68
2022/04/29 01:29:06;;;;;;;9.88;8.93;;;13.00;75.20;;;;;;5093059;28;20301;-68
2022/04/29 01:31:34;;;;;;;8.95;8.10;;;13.00;75.40;;;;;;5090621;28;20234;-68
2022/04/29 01:34:01;;;;;;;11.77;7.93;;;13.00;75.60;;;;;;5091292;28;20305;-68
2022/04/29 01:36:28;;;;;;;10.68;8.18;;;13.00;75.70;;;;;;5092467;28;20291;-68
2022/04/29 01:38:55;;;;;;;11.95;8.43;;;12.90;75.90;;;;;;5092950;28;20240;-68
2022/04/29 01:41:23;;;;;;;8.60;7.78;;;12.90;75.90;;;;;;5091921;28;20234;-68
2022/04/29 01:43:50;;;;;;;8.70;7.88;;;12.90;76.00;;;;;;5092928;28;20223;-68
2022/04/29 01:46:17;;;;;;;9.82;7.68;;;12.90;75.70;;;;;;5092494;28;20223;-68
2022/04/29 01:48:44;;;;;;;8.05;7.22;;;12.80;75.10;;;;;;5092576;28;20223;-68
2022/04/29 01:51:11;;;;;;;7.18;6.47;;;12.80;75.00;;;;;;5092769;28;20223;-68
2022/04/29 01:53:37;;;;;;;8.35;7.20;;;12.80;74.50;;;;;;5092348;28;20230;-69
2022/04/29 01:56:05;;;;;;;7.30;6.70;;;12.80;75.10;;;;;;5092233;28;20218;-68
2022/04/29 01:58:33;;;;;;;8.60;7.70;;;12.80;74.30;;;;;;5091347;28;20323;-69
2022/04/29 02:01:00;;;;;;;9.18;8.27;;;12.80;74.00;;;;;;5092398;28;20747;-69
2022/04/29 02:03:27;;;;;;;11.77;9.73;;;12.70;74.10;;;;;;5092072;28;20230;-68
2022/04/29 02:05:54;;;;;;;10.20;8.40;;;12.70;74.40;;;;;;5092035;28;20677;-69
2022/04/29 02:08:21;;;;;;;7.43;6.32;;;12.60;74.60;;;;;;5092072;28;20230;-68
2022/04/29 02:10:48;;;;;;;8.45;7.57;;;12.60;74.70;;;;;;5092516;28;20219;-68
2022/04/29 02:13:14;;;;;;;7.95;6.57;;;12.60;74.80;;;;;;5091888;28;20614;-69
2022/04/29 02:15:46;;;;;;;8.05;7.00;;;12.60;74.90;;;;;;5092587;28;20234;-67
2022/04/29 02:18:13;;;;;;;7.10;5.63;;;12.60;75.10;;;;;;5091875;28;20227;-68
2022/04/29 02:20:40;;;;;;;6.72;6.13;;;12.50;75.40;;;;;;5092145;28;20246;-68
2022/04/29 02:23:07;;;;;;;8.95;7.10;;;12.50;75.50;;;;;;5092379;28;20748;-69
2022/04/29 02:25:41;;;;;;;8.70;6.50;;;12.50;75.70;;;;;;5091572;28;20545;-68
2022/04/29 02:28:08;;;;;;;8.38;7.00;;;12.40;75.50;;;;;;5078963;28;20225;-68
2022/04/29 02:30:35;;;;;;;6.47;5.43;;;12.40;75.60;;;;;;5088776;28;20223;-68
2022/04/29 02:33:03;;;;;;;7.15;6.35;;;12.40;75.70;;;;;;5092768;28;20630;-68
2022/04/29 02:35:31;;;;;;;9.05;6.78;;;12.40;75.60;;;;;;5096130;28;20685;-67
2022/04/29 02:37:58;;;;;;;6.13;5.07;;;12.40;75.80;;;;;;5096487;28;20234;-69
2022/04/29 02:40:25;;;;;;;6.28;5.68;;;12.40;75.90;;;;;;5095234;28;20257;-68
2022/04/29 02:42:53;;;;;;;7.18;5.55;;;12.40;76.00;;;;;;5096297;28;20219;-68
2022/04/29 02:45:20;;;;;;;5.68;5.18;;;12.40;76.10;;;;;;5095795;28;20237;-69
2022/04/29 02:47:47;;;;;;;9.77;5.85;;;12.40;76.00;;;;;;5095996;28;20280;-68
2022/04/29 02:50:15;;;;;;;6.70;6.07;;;12.40;76.00;;;;;;5096065;28;20277;-68
2022/04/29 02:52:42;;;;;;;5.70;5.20;;;12.40;76.00;;;;;;5095681;28;20677;-68
2022/04/29 02:55:09;;;;;;;8.82;6.13;;;12.40;76.20;;;;;;5095589;28;20219;-69
2022/04/29 02:57:36;;;;;;;7.95;6.47;;;12.40;76.30;;;;;;5095783;28;20223;-68
2022/04/29 03:00:04;;;;;;;7.10;6.40;;;12.40;76.50;;;;;;5095972;28;20227;-69
2022/04/29 03:02:31;;;;;;;6.97;6.35;;;12.40;76.70;;;;;;5095082;28;20577;-68
2022/04/29 03:04:58;;;;;;;7.93;7.13;;;12.40;77.10;;;;;;5089953;28;20220;-68
2022/04/29 03:07:26;;;;;;;7.82;7.05;;;12.40;78.30;;;;;;5095599;28;20234;-69
2022/04/29 03:09:54;;;;;;;7.60;6.85;;;12.40;77.60;;;;;;5095628;28;20219;-68
2022/04/29 03:12:23;;;;;;;7.80;7.10;;;12.40;78.50;;;;;;5095193;28;20234;-69
2022/04/29 03:14:50;;;;;;;10.02;7.07;;;12.40;77.80;;;;;;5094746;28;20227;-68
2022/04/29 03:19:59;;;;;;;7.57;6.78;;;12.30;77.80;;;;;;5095298;28;20222;-68
2022/04/29 03:22:28;;;;;;;7.80;6.35;;;12.30;78.10;;;;;;5095029;28;20227;-68
2022/04/29 03:24:55;;;;;;;7.47;6.78;;;12.30;78.20;;;;;;5095281;28;20219;-68
2022/04/29 03:27:22;;;;;;;8.95;7.40;;;12.20;78.40;;;;;;5094608;28;20227;-68
2022/04/29 03:29:49;;;;;;;9.05;7.25;;;12.20;78.40;;;;;;5095472;28;20234;-68
2022/04/29 03:32:15;;;;;;;7.15;6.55;;;12.20;78.60;;;;;;5091626;28;20219;-68
2022/04/29 03:34:42;;;;;;;8.25;7.30;;;12.20;78.50;;;;;;5095196;28;20211;-68
2022/04/29 03:37:09;;;;;;;7.53;6.82;;;12.20;78.60;;;;;;5094636;28;20219;-68
2022/04/29 03:39:37;;;;;;;8.05;6.55;;;12.20;78.60;;;;;;5094408;28;20226;-68
2022/04/29 03:42:05;;;;;;;8.38;7.00;;;12.20;78.80;;;;;;5094091;28;20551;-68
2022/04/29 03:44:32;;;;;;;8.32;7.53;;;12.20;78.90;;;;;;5095141;28;20238;-67
2022/04/29 03:46:59;;;;;;;8.23;7.00;;;12.10;78.50;;;;;;5094988;28;20230;-68
2022/04/29 03:49:37;;;;;;;10.13;8.65;;;12.10;78.50;;;;;;5094663;28;20219;-68
2022/04/29 03:52:06;;;;;;;10.80;7.43;;;12.10;78.60;;;;;;5094468;28;20237;-68
2022/04/29 03:54:33;;;;;;;10.18;7.90;;;12.10;78.70;;;;;;5094929;28;20215;-68
2022/04/29 03:57:01;;;;;;;8.07;6.45;;;12.10;78.90;;;;;;5095114;28;20216;-68
2022/04/29 03:59:28;;;;;;;8.48;7.63;;;12.00;79.10;;;;;;5094318;28;20228;-68
2022/04/29 04:01:55;;;;;;;11.15;7.78;;;12.00;79.20;;;;;;5094605;28;20230;-68
2022/04/29 04:04:22;;;;;;;8.32;7.40;;;12.00;79.50;;;;;;5094289;28;20227;-68
2022/04/29 04:06:52;;;;;;;12.60;8.07;;;12.00;79.60;;;;;;5094883;28;20226;-67
2022/04/29 04:09:21;;;;;;;11.73;7.30;;;12.00;79.70;;;;;;5094067;28;20219;-69
2022/04/29 04:11:49;;;;;;;9.88;7.20;;;12.00;79.90;;;;;;5094689;28;20223;-68
2022/04/29 04:14:18;;;;;;;9.25;7.25;;;12.00;79.90;;;;;;5093493;27;20292;-68
2022/04/29 04:16:45;;;;;;;8.40;7.03;;;12.00;79.90;;;;;;5092835;27;20215;-68
2022/04/29 04:19:12;;;;;;;8.50;6.25;;;12.10;80.20;;;;;;5094337;28;20231;-68
2022/04/29 04:21:39;;;;;;;11.38;8.18;;;12.10;80.00;;;;;;5084464;28;20246;-68
2022/04/29 04:24:07;;;;;;;9.50;7.50;;;12.10;80.00;;;;;;5073759;28;20216;-68
2022/04/29 04:26:34;;;;;;;11.07;7.85;;;12.10;80.10;;;;;;5074268;28;20239;-68
2022/04/29 04:29:01;;;;;;;9.05;8.18;;;12.20;80.00;;;;;;5074658;28;20219;-68
2022/04/29 04:31:29;;;;;;;9.43;8.15;;;12.20;79.30;;;;;;5082192;28;20230;-68
2022/04/29 04:33:56;;;;;;;9.50;8.30;;;12.10;79.10;;;;;;5074199;28;20220;-68
2022/04/29 04:36:23;;;;;;;7.60;6.90;;;12.20;79.40;;;;;;5073598;28;20228;-68
2022/04/29 04:38:52;;;;;;;7.68;6.97;;;12.20;79.20;;;;;;5074135;28;20216;-68
2022/04/29 04:41:19;;;;;;;8.48;7.38;;;12.20;79.30;;;;;;5073592;28;20240;-68
2022/04/29 04:43:46;;;;;;;7.70;6.90;;;12.20;79.30;;;;;;5073938;28;20689;-68
2022/04/29 04:46:13;;;;;;;11.15;8.43;;;12.30;79.10;;;;;;5073213;28;20228;-68
2022/04/29 04:48:42;;;;;;;10.65;7.05;;;12.30;78.90;;;;;;5073721;28;20224;-69
2022/04/29 04:51:09;;;;;;;8.77;6.90;;;12.30;78.30;;;;;;5086609;28;20237;-69
2022/04/29 04:53:36;;;;;;;8.75;7.85;;;12.40;78.20;;;;;;5093933;28;20230;-68
2022/04/29 04:56:03;;;;;;;8.23;7.07;;;12.40;78.20;;;;;;5094031;28;20665;-68
2022/04/29 04:58:32;;;;;;;7.70;7.00;;;12.50;78.10;;;;;;5093456;28;20352;-68
2022/04/29 05:00:59;;;;;;;8.63;6.65;;;12.60;77.90;;;;;;5093736;28;20659;-68
2022/04/29 05:03:26;;;;;;;8.52;7.40;;;12.60;77.60;;;;;;5091321;28;20223;-68
2022/04/29 05:05:54;;;;;;;9.38;7.78;;;12.70;77.40;;;;;;5073488;28;20566;-68
2022/04/29 05:08:21;;;;;;;13.25;7.68;;;12.70;77.20;;;;;;5073040;28;20220;-68
2022/04/29 05:10:49;;;;;;;9.45;6.00;;;12.70;77.10;;;;;;5073311;28;20543;-68
2022/04/29 05:13:15;;;;;;;8.45;7.65;;;12.80;77.40;;;;;;5075430;28;20247;-68
2022/04/29 05:15:43;;;;;;;7.80;6.07;;;12.90;77.40;;;;;;5093899;28;20238;-68
2022/04/29 05:18:10;;;;;;;10.43;7.43;;;12.90;77.20;;;;;;5093059;28;20292;-69
2022/04/29 05:20:36;;;;;;;7.97;6.55;;;13.00;77.10;;;;;;5093349;28;20233;-68
2022/04/29 05:23:04;;;;;;;7.68;7.00;;;13.10;76.80;;;;;;5093651;28;20223;-68
2022/04/29 05:25:32;;;;;;;7.85;6.95;;;13.20;76.70;;;;;;5092787;28;20227;-68
2022/04/29 05:27:59;;;;;;;7.25;6.55;;;13.20;76.40;;;;;;5093346;28;20319;-67
2022/04/29 05:30:27;;;;;;;7.25;5.35;;;13.40;76.40;;;;;;5093002;28;20224;-68
2022/04/29 05:32:54;;;;;;;7.82;6.32;;;13.50;76.30;;;;;;5072726;28;20682;-68
2022/04/29 05:35:22;;;;;;;7.60;5.78;;;13.50;76.00;;;;;;5072716;28;20680;-68
2022/04/29 05:37:49;;;;;;;9.90;6.22;;;13.60;75.80;;;;;;5073136;28;20237;-68
2022/04/29 05:43:02;;;;;;;5.93;5.32;;;13.70;75.00;;;;;;5072796;28;20228;-69
2022/04/29 05:45:29;;;;;;;11.32;7.00;;;13.80;74.40;;;;;;5072574;28;20235;-69
2022/04/29 05:47:56;;;;;;;9.32;5.63;;;13.80;72.50;;;;;;5072912;28;20234;-68
2022/04/29 05:50:22;;;;;;;5.90;4.95;;;13.90;72.00;;;;;;5080286;28;20237;-68
2022/04/29 05:52:49;;;;;;;6.70;5.30;;;13.90;71.50;;;;;;5092823;28;20696;-67
2022/04/29 05:55:18;;;;;;;5.38;4.32;;;14.00;70.90;;;;;;5091899;28;20215;-69
2022/04/29 05:57:44;;;;;;;10.82;5.68;;;14.00;70.50;;;;;;5092918;28;20234;-70
2022/04/29 06:00:12;;;;;;;5.60;5.00;;;14.10;69.60;;;;;;5092681;28;20274;-69
2022/04/29 06:02:40;;;;;;;6.50;4.43;;;14.10;68.90;;;;;;5092062;28;20675;-68
2022/04/29 06:05:08;;;;;;;6.30;5.55;;;14.20;68.50;;;;;;5092619;28;20218;-70
2022/04/29 06:07:35;;;;;;;6.32;5.03;;;14.20;68.20;;;;;;5092102;28;20223;-68
2022/04/29 06:10:02;;;;;;;7.03;5.20;;;14.20;68.00;;;;;;5092041;28;20238;-68
2022/04/29 06:12:30;;;;;;;5.47;4.70;;;14.30;67.90;;;;;;5091731;28;20219;-68
2022/04/29 06:14:57;;;;;;;9.52;5.57;;;14.30;67.70;;;;;;5092663;28;20219;-68
2022/04/29 06:17:23;;;;;;;7.53;5.90;;;14.40;67.60;;;;;;5092299;28;20247;-68
2022/04/29 06:19:50;;;;;;;6.72;5.50;;;14.50;67.30;;;;;;5092531;28;20229;-68
2022/04/29 06:22:17;;;;;;;9.68;5.50;;;14.60;67.30;;;;;;5092383;28;20239;-68
2022/04/29 06:24:44;;;;;;;8.93;4.93;;;14.70;66.30;;;;;;5092618;28;20224;-68
2022/04/29 06:27:11;;;;;;;11.85;5.05;;;14.80;64.50;;;;;;5092453;28;20257;-68
2022/04/29 06:29:40;;;;;;;6.90;4.07;;;14.80;64.60;;;;;;5092291;28;20220;-68
2022/04/29 06:32:07;;;;;;;6.63;4.53;;;14.90;64.60;;;;;;5087230;28;20472;-68
2022/04/29 06:34:34;;;;;;;5.90;3.83;;;15.00;63.10;;;;;;5071937;28;20473;-68
2022/04/29 06:37:01;;;;;;;6.85;4.30;;;15.10;62.40;;;;;;5078576;28;20496;-69
2022/04/29 06:39:28;;;;;;;5.67;4.50;;;15.10;62.40;;;;;;5090059;28;20231;-69
2022/04/29 06:41:54;;;;;;;6.43;4.37;;;15.30;61.70;;;;;;5072485;28;20485;-67
2022/04/29 06:44:21;;;;;;;8.20;4.20;;;15.40;60.00;;;;;;5082703;28;20470;-69
2022/04/29 06:46:51;;;;;;;7.97;3.33;;;15.40;59.30;;;;;;5092408;28;20472;-68
2022/04/29 06:49:17;;;;;;;4.17;3.33;;;15.50;59.00;;;;;;5092603;28;20462;-68
2022/04/29 06:51:44;;;;;;;6.40;4.10;;;15.40;58.80;;;;;;5092066;28;20458;-68
2022/04/29 06:54:11;;;;;;;6.30;3.40;;;15.50;59.00;;;;;;5092263;28;20484;-68
2022/04/29 06:56:38;;;;;;;5.53;3.47;;;15.60;59.60;;;;;;5092050;28;20469;-68
2022/04/29 06:59:05;;;;;;;8.03;4.07;;;15.60;59.60;;;;;;5092295;28;20469;-67
2022/04/29 07:01:32;;;;;;;4.30;3.27;;;15.70;58.70;;;;;;5091670;28;20480;-68
2022/04/29 07:04:00;;;;;;;6.10;4.27;;;15.80;58.50;;;;;;5092467;28;20465;-67
2022/04/29 07:06:27;;;;;;;5.80;4.43;;;15.90;58.40;;;;;;5091726;28;20485;-68
2022/04/29 07:08:54;;;;;;;7.80;3.57;;;16.00;58.30;;;;;;5092476;28;20495;-67
2022/04/29 07:11:21;;;;;;;3.93;2.53;;;15.90;57.40;;;;;;5091743;28;20491;-67
2022/04/29 07:13:48;;;;;;;8.50;3.90;;;16.00;57.60;;;;;;5091936;28;20480;-67
2022/04/29 07:16:15;;;;;;;7.83;3.40;;;16.10;57.70;;;;;;5095793;28;20461;-67
2022/04/29 07:18:42;;;;;;;3.33;2.80;;;16.20;57.80;;;;;;5095467;28;20469;-68
2022/04/29 07:21:10;;;;;;;4.73;2.77;;;16.30;57.40;;;;;;5095492;28;20473;-69
2022/04/29 07:23:37;;;;;;;7.40;2.70;;;16.40;57.20;;;;;;5095455;28;20473;-68
2022/04/29 07:26:04;;;;;;;5.83;2.90;;;16.50;56.80;;;;;;5095574;28;20458;-68
2022/04/29 07:28:31;;;;;;;5.73;3.17;;;16.70;55.70;;;;;;5095237;28;20469;-68
2022/04/29 07:30:59;;;;;;;10.07;3.50;;;16.80;55.40;;;;;;5095450;28;20659;-68
2022/04/29 07:33:26;;;;;;;4.93;3.27;;;16.90;54.50;;;;;;5095124;28;20563;-68
2022/04/29 07:44:07;;;;;;;7.63;4.80;;;17.10;51.90;;;;;;5095429;28;20470;-68
2022/04/29 07:46:36;;;;;;;5.97;3.03;;;17.10;51.70;;;;;;5095423;28;20465;-67
2022/04/29 07:49:05;;;;;;;8.03;3.23;;;17.20;52.00;;;;;;5094841;28;20492;-68
2022/04/29 07:51:32;;;;;;;6.67;3.43;;;17.30;52.00;;;;;;5095247;28;20466;-67
2022/04/29 07:54:00;;;;;;;5.07;3.27;;;17.30;52.10;;;;;;5095197;28;20470;-67
2022/04/29 07:56:27;;;;;;;3.80;2.37;;;17.40;52.70;;;;;;5094630;28;20477;-68
2022/04/29 07:58:55;;;;;;;5.00;2.27;;;17.40;52.90;;;;;;5095095;28;20462;-68
2022/04/29 08:01:22;;;;;;;5.67;3.30;;;17.40;52.50;;;;;;5094641;28;21010;-68
2022/04/29 08:03:49;;;;;;;3.40;1.83;;;17.50;52.60;;;;;;5094816;28;20466;-68
2022/04/29 08:06:16;;;;;;;5.80;3.80;;;17.60;52.80;;;;;;5094483;28;20475;-67
2022/04/29 08:08:43;;;;;;;6.30;2.43;;;17.60;52.00;;;;;;5094971;28;20520;-67
2022/04/29 08:11:11;;;;;;;8.60;3.33;;;17.70;51.90;;;;;;5094457;28;20806;-68
2022/04/29 08:13:38;;;;;;;7.23;2.90;;;17.70;51.80;;;;;;5094732;28;20533;-68
2022/04/29 08:16:05;;;;;;;6.87;3.90;;;17.70;52.30;;;;;;5094705;28;20469;-68
2022/04/29 08:18:32;;;;;;;8.47;3.20;;;17.60;52.00;;;;;;5094194;28;20447;-69
2022/04/29 08:20:59;;;;;;;4.70;2.60;;;17.60;51.90;;;;;;5094526;28;20964;-68
2022/04/29 08:23:26;;;;;;;3.60;2.77;;;17.70;51.90;;;;;;5094245;28;20463;-68
2022/04/29 08:25:53;;;;;;;8.40;2.83;;;17.80;52.10;;;;;;5094216;28;20484;-68
2022/04/29 08:28:23;;;;;;;4.87;2.90;;;17.80;51.20;;;;;;5094099;28;20480;-68
2022/04/29 08:30:50;;;;;;;8.40;3.70;;;17.80;51.30;;;;;;5094544;28;20510;-68
2022/04/29 08:33:17;;;;;;;4.27;2.87;;;17.90;52.20;;;;;;5093786;28;20468;-68
2022/04/29 08:35:45;;;;;;;5.70;2.87;;;17.90;52.50;;;;;;5094371;28;20462;-68
2022/04/29 08:38:12;;;;;;;3.43;3.00;;;18.00;52.20;;;;;;5093814;28;20467;-68
2022/04/29 08:40:42;;;;;;;9.43;4.30;;;18.10;51.80;;;;;;5094174;28;20460;-68
2022/04/29 08:43:10;;;;;;;5.07;3.90;;;18.00;51.60;;;;;;5094289;28;20997;-68
2022/04/29 08:45:39;;;;;;;4.53;3.57;;;18.10;51.50;;;;;;5093936;28;21112;-67
2022/04/29 08:48:07;;;;;;;3.63;2.60;;;18.10;51.50;;;;;;5094005;28;20461;-69
2022/04/29 08:50:34;;;;;;;4.67;2.57;;;18.20;51.70;;;;;;5093716;28;20557;-69
2022/04/29 08:53:02;;;;;;;5.40;3.20;;;18.20;52.00;;;;;;5094141;28;20980;-69
2022/04/29 09:01:03;;;;;;;6.40;3.63;;;18.40;51.50;;;;;;5093813;28;20479;-69
2022/04/29 09:03:30;;;;;;;4.63;3.33;;;18.40;51.90;;;;;;5093514;28;20467;-69
2022/04/29 09:05:57;;;;;;;4.80;2.87;;;18.50;52.30;;;;;;5093630;28;20472;-69
2022/04/29 09:08:25;;;;;;;7.43;4.43;;;18.50;52.50;;;;;;5093372;28;20475;-69
2022/04/29 09:10:54;;;;;;;6.10;3.40;;;18.50;52.40;;;;;;5093878;28;20487;-69
2022/04/29 09:13:24;;;;;;;8.17;4.47;;;18.50;52.70;;;;;;5093085;28;20496;-69
2022/04/29 09:15:54;;;;;;;7.43;4.00;;;18.60;52.40;;;;;;5093739;28;20798;-69
2022/04/29 09:18:37;;;;;;;5.83;4.60;;;18.60;52.70;;;;;;5093128;28;20854;-68
2022/04/29 09:21:07;;;;;;;4.47;3.80;;;18.70;52.50;;;;;;5093419;28;20468;-68
2022/04/29 09:23:36;;;;;;;5.37;3.80;;;18.70;52.80;;;;;;5093070;28;20465;-68
2022/04/29 09:26:05;;;;;;;7.43;4.23;;;18.70;52.90;;;;;;5093324;28;20826;-68
2022/04/29 09:28:33;;;;;;;6.80;4.37;;;18.80;53.00;;;;;;5092917;28;20479;-69
2022/04/29 09:31:01;;;;;;;4.97;4.20;;;18.80;52.60;;;;;;5093284;28;20503;-69
2022/04/29 09:33:29;;;;;;;5.27;3.67;;;18.80;52.40;;;;;;5092730;28;20491;-68
2022/04/29 09:35:58;;;;;;;8.10;5.30;;;18.80;52.20;;;;;;5093212;28;20461;-69
2022/04/29 09:41:09;;;;;;;5.67;4.13;;;18.90;50.80;;;;;;5093153;28;20468;-69
2022/04/29 09:43:38;;;;;;;4.23;3.83;;;18.90;50.90;;;;;;5092667;28;20469;-69
2022/04/29 09:46:19;;;;;;;4.33;3.67;;;18.90;51.00;;;;;;5092854;28;20469;-69
2022/04/29 09:49:02;;;;;;;5.90;3.90;;;18.90;51.50;;;;;;5092995;28;20475;-69
2022/04/29 09:51:45;;;;;;;4.03;3.60;;;18.90;51.50;;;;;;5092495;28;20476;-69
2022/04/29 09:54:18;;;;;;;5.03;4.43;;;18.90;51.50;;;;;;5093063;28;20514;-69
2022/04/29 09:56:46;;;;;;;6.07;3.20;;;18.90;51.20;;;;;;5092377;28;20464;-69
2022/04/29 09:59:13;;;;;;;5.60;4.37;;;18.90;50.80;;;;;;5092972;28;20809;-69
2022/04/29 10:01:42;;;;;;;7.40;4.23;;;18.90;50.30;;;;;;5092514;28;20469;-69
2022/04/29 10:04:10;;;;;;;8.23;4.70;;;18.90;50.80;;;;;;5092846;28;20472;-68
2022/04/29 10:06:40;;;;;;;9.03;3.90;;;18.90;50.70;;;;;;5092361;28;20479;-68
2022/04/29 10:09:11;;;;;;;3.80;3.50;;;18.90;50.80;;;;;;5092866;28;20464;-68
2022/04/29 10:11:40;;;;;;;5.00;4.23;;;18.90;50.50;;;;;;5092429;28;20469;-68
2022/04/29 10:14:10;;;;;;;4.37;3.97;;;19.00;49.70;;;;;;5092775;28;20484;-68
2022/04/29 10:16:39;;;;;;;4.83;4.30;;;19.00;49.70;;;;;;5092501;28;21008;-68
2022/04/29 10:21:52;;;;;;;5.70;4.63;;;19.00;49.90;;;;;;5092266;28;20510;-69
2022/04/29 10:24:24;;;;;;;5.20;3.83;;;19.00;50.10;;;;;;5092515;28;20461;-69
2022/04/29 10:26:54;;;;;;;5.20;3.57;;;19.00;50.00;;;;;;5091988;28;20467;-69
2022/04/29 10:29:21;;;;;;;5.13;4.30;;;19.00;49.80;;;;;;5092631;28;20461;-69
2022/04/29 10:32:04;;;;;;;7.13;4.30;;;19.10;49.50;;;;;;5091868;28;20466;-69
2022/04/29 10:34:33;;;;;;;4.53;3.00;;;19.10;49.40;;;;;;5092047;28;20481;-69
2022/04/29 10:37:00;;;;;;;6.87;4.60;;;19.20;49.60;;;;;;5092667;28;20453;-69
2022/04/29 10:39:28;;;;;;;4.87;3.20;;;19.20;49.40;;;;;;5084171;28;20465;-69
2022/04/29 10:42:00;;;;;;;5.60;4.00;;;19.20;49.40;;;;;;5075005;28;20814;-69
2022/04/29 10:44:27;;;;;;;8.50;4.83;;;19.30;50.00;;;;;;5079174;28;20473;-69
2022/04/29 10:46:54;;;;;;;4.63;3.13;;;19.30;49.00;;;;;;5086514;28;20465;-69
2022/04/29 10:49:23;;;;;;;4.77;3.30;;;19.30;49.10;;;;;;5074203;28;20458;-69
2022/04/29 10:51:51;;;;;;;9.43;5.13;;;19.30;49.40;;;;;;5085335;28;20484;-69
2022/04/29 10:57:14;;;;;;;4.30;3.50;;;19.30;49.70;;;;;;5074613;27;20542;-69
2022/04/29 10:59:51;;;;;;;6.30;4.77;;;19.40;49.30;;;;;;5047584;28;20559;-69
2022/04/29 11:02:26;;;;;;;5.23;4.67;;;19.40;49.70;;;;;;5038644;28;20472;-69
2022/04/29 11:04:54;;;;;;;5.37;4.67;;;19.50;49.80;;;;;;5014946;28;20451;-69
2022/04/29 11:07:43;;;;;;;4.53;3.90;;;19.50;50.10;;;;;;5010077;28;20492;-68
2022/04/29 11:10:12;;;;;;;4.60;4.20;;;19.60;50.40;;;;;;5021968;28;20474;-67
2022/04/29 11:12:42;;;;;;;4.80;3.50;;;19.60;50.20;;;;;;5018753;28;20535;-67
2022/04/29 11:15:11;;;;;;;9.23;4.40;;;19.60;50.00;;;;;;5029334;28;20495;-68
2022/04/29 11:17:39;;;;;;;12.80;7.10;;;19.70;50.10;;;;;;5010185;28;20463;-68
2022/04/29 11:20:17;;;;;;;5.43;3.77;;;19.80;50.20;;;;;;5008383;28;20473;-68
2022/04/29 11:25:53;;;;;;;4.73;4.30;;;19.80;48.50;;;;;;5008492;28;20467;-68
2022/04/29 11:28:22;;;;;;;5.40;3.70;;;19.90;48.00;;;;;;5009356;28;20819;-68
2022/04/29 11:30:53;;;;;;;5.57;4.50;;;19.80;47.60;;;;;;5009341;28;20488;-68
2022/04/29 11:33:24;;;;;;;3.73;3.33;;;19.70;47.20;;;;;;5009132;28;20561;-68
2022/04/29 11:36:00;;;;;;;6.93;4.23;;;19.70;47.30;;;;;;5012125;28;20464;-69
2022/04/29 11:38:28;;;;;;;7.53;6.83;;;19.70;47.70;;;;;;5028126;28;20548;-68
2022/04/29 11:40:54;;;;;;;6.27;5.37;;;19.70;48.00;;;;;;5028577;28;20476;-68
2022/04/29 11:43:25;;;;;;;9.30;6.07;;;19.70;48.90;;;;;;5028362;28;20479;-68
2022/04/29 11:46:05;;;;;;;4.97;4.47;;;19.80;49.60;;;;;;5008053;28;20473;-68
2022/04/29 11:48:33;;;;;;;7.77;6.93;;;19.80;48.30;;;;;;5028036;28;20472;-68
2022/04/29 11:51:00;;;;;;;4.53;4.10;;;19.70;48.20;;;;;;5028249;28;20967;-68
2022/04/29 11:53:27;;;;;;;5.07;4.53;;;19.70;48.20;;;;;;5028313;28;20471;-68
2022/04/29 11:55:54;;;;;;;6.23;4.30;;;19.80;48.00;;;;;;5027669;28;20468;-68
2022/04/29 11:58:21;;;;;;;6.60;5.40;;;19.80;48.10;;;;;;5028359;28;20966;-68
2022/04/29 12:00:54;;;;;;;4.83;4.17;;;19.90;48.40;;;;;;5028342;28;20480;-68
2022/04/29 12:03:22;;;;;;;7.97;5.50;;;19.90;48.40;;;;;;5028923;28;20468;-68
2022/04/29 12:05:49;;;;;;;9.77;7.50;;;20.00;48.30;;;;;;5028578;28;20468;-68
2022/04/29 12:08:17;;;;;;;7.63;6.20;;;20.00;48.90;;;;;;5017192;28;20477;-68
2022/04/29 12:10:45;;;;;;;8.73;7.40;;;20.10;48.90;;;;;;5015105;28;20478;-67
2022/04/29 12:13:13;;;;;;;7.63;6.83;;;20.20;48.90;;;;;;5015627;28;20508;-68
2022/04/29 12:15:41;;;;;;;8.03;6.53;;;20.30;48.80;;;;;;5014944;28;20473;-68
2022/04/29 12:18:12;;;;;;;9.63;5.77;;;20.40;48.00;;;;;;5015290;28;20480;-67
2022/04/29 12:20:40;;;;;;;7.93;4.80;;;20.40;46.80;;;;;;5014956;28;20465;-68
2022/04/29 12:23:12;;;;;;;8.83;4.70;;;20.40;45.60;;;;;;5015218;28;20464;-68
2022/04/29 12:25:42;;;;;;;3.97;3.57;;;20.50;45.30;;;;;;5014884;28;20528;-68
2022/04/29 12:28:21;;;;;;;4.60;4.00;;;20.50;45.20;;;;;;5015305;28;20477;-68
2022/04/29 12:36:46;;;;;;;7.40;5.40;;;20.40;45.50;;;;;;4995586;28;20478;-68
2022/04/29 12:39:13;;;;;;;7.17;5.27;;;20.40;46.20;;;;;;4995388;28;20960;-68
2022/04/29 12:41:41;;;;;;;7.63;5.90;;;20.40;46.70;;;;;;4995472;28;20470;-69
2022/04/29 12:44:10;;;;;;;9.77;6.00;;;20.40;47.80;;;;;;5004200;28;20470;-68
2022/04/29 12:46:37;;;;;;;6.03;5.50;;;20.50;47.20;;;;;;5008217;28;20473;-69
2022/04/29 12:49:05;;;;;;;10.67;5.50;;;20.40;46.60;;;;;;4995338;28;20476;-68
2022/04/29 12:51:33;;;;;;;6.27;5.17;;;20.50;46.50;;;;;;4994545;28;20501;-68
2022/04/29 12:54:02;;;;;;;5.80;3.80;;;20.50;46.20;;;;;;4999442;28;20541;-68
2022/04/29 12:56:31;;;;;;;3.80;3.23;;;20.50;45.50;;;;;;5033662;28;20816;-69
2022/04/29 12:58:59;;;;;;;4.70;4.37;;;20.50;45.60;;;;;;5015696;28;20473;-68
2022/04/29 13:01:26;;;;;;;6.07;4.50;;;20.50;44.80;;;;;;5013381;28;20473;-68
2022/04/29 13:03:54;;;;;;;4.50;4.10;;;20.50;44.90;;;;;;5013357;28;20469;-68
2022/04/29 13:06:24;;;;;;;4.90;4.20;;;20.50;44.80;;;;;;5013940;28;20804;-68
2022/04/29 13:08:55;;;;;;;4.60;3.70;;;20.50;44.00;;;;;;5014293;28;20461;-68
2022/04/29 13:11:23;;;;;;;4.80;4.40;;;20.50;43.80;;;;;;5013501;28;20983;-68
2022/04/29 13:13:51;;;;;;;5.60;4.90;;;20.50;44.00;;;;;;5014303;28;20465;-69
2022/04/29 13:16:18;;;;;;;6.67;4.17;;;20.50;43.60;;;;;;5013814;28;20485;-68
2022/04/29 13:18:45;;;;;;;8.03;3.43;;;20.50;43.70;;;;;;5013393;28;20472;-68
2022/04/29 13:21:12;;;;;;;6.70;4.50;;;20.50;43.60;;;;;;5014547;28;20473;-68
2022/04/29 13:23:42;;;;;;;6.23;4.03;;;20.50;43.40;;;;;;5013910;28;20482;-68
2022/04/29 13:26:09;;;;;;;5.93;4.87;;;20.60;43.70;;;;;;5014151;28;20465;-69